Historyczne dane pomiarowe

Dodano dane terminowe – wersja testowa.

Dane z okresu 1951-2019

Wersja bazy: 1.34 [2019-03-16, lista zmian], aktualizacja planowana na 2019-04-15

Dane meteo z obszaru Polski uzyskane na podstawie danych udostępnionych przez Instytut Meteorologii i Gospodarki Wodnej – Państwowy Instytut Badawczy.

 

Wybierz Datę:    

       

TemperaturaWilgotnośćWiatrCiśnienieOpadyŚniegCzas trwania zjawisk
 Stacja t tx tn tng RH VA  wxwx mslp ppp RRR   cm mm wxwxwxwxwxwxwx
1966-03-18 1.1 5.3 0.0- 75.5- 6.7 6.7---- 0.0------------
1966-03-19 -0.7 2.5 -1.9- 83.0- 1.3 7.3---- 0.0------------
1966-03-20 2.2 3.8 -2.0- 76.0- 3.3 17.3---- 0.0------------
1966-03-21 3.4 5.0 2.6- 90.0- 5.3 13.7---- 2.5------------
1966-03-22 2.6 4.2 1.6- 72.5- 2.3 17.0---- 0.5------------
1966-03-23 3.9 6.7 1.7- 89.3- 7.0 5.7---- 2.5------------
1966-03-24 2.9 5.2 0.6- 73.3- 7.3 8.0---- 1.4------------
1966-03-25 1.2 5.4 -1.4- 78.8- 5.3 8.0---- 5.6------------
1966-03-26 -0.1 2.1 -3.4- 84.8- 3.0 7.7---- 1.2-- 3---------
1966-03-27 3.0 6.3 -4.8- 79.3- 5.7 13.7---- 0.2-- 2---------
1966-03-28 4.1 8.2 1.8- 80.8- 6.3 8.7---- 2.5------------
1966-03-29 1.9 3.6 0.6- 82.5- 7.3 7.0---- 3.9------------
1966-03-30 2.4 4.6 0.5- 79.3- 6.3 5.0---- 0.0------------
1966-03-31 4.6 7.1 0.1- 73.8- 5.3 5.7---- 0.0------------
1966-04-01 5.7 9.1 1.5- 73.0- 2.3 2.3---- 0.0------------
1966-04-02 5.6 9.7 3.1- 71.3- 2.3 1.7---- 0.0------------
1966-04-03 3.9 7.8 2.6- 86.5- 4.7 2.3---- 0.0------------
1966-04-04 4.9 9.5 3.3- 83.8- 2.7 1.7---- 0.0------------
1966-04-05 8.1 12.1 3.1- 73.5- 4.3 1.7---- 0.2------------
1966-04-06 2.2 9.0 1.3- 88.8- 6.3 1.3---- 0.0------------
1966-04-07 2.2 3.2 1.0- 87.5- 7.3 4.7---- 3.9------------
1966-04-08 0.9 2.7 -0.4- 96.8- 8.0 4.0---- 0.0------------
1966-04-09 1.9 2.6 -0.7- 94.8- 8.0 4.3---- 4.9------------
1966-04-10 1.7 3.2 1.3- 95.5- 8.0 6.7---- 0.3------------
1966-04-11 1.3 2.0 0.6- 90.5- 8.0 10.0---- 3.3------------
1966-04-12 -0.3 1.6 -0.8- 90.5- 8.0 9.3---- 0.0------------
1966-04-13 -0.9 0.6 -1.5- 90.0- 8.0 5.7---- 0.4------------
1966-04-14 -0.6 1.4 -1.9- 92.0- 8.0 6.3---- 7.1------------
1966-04-15 -0.7 1.6 -1.5- 87.3- 8.0 2.7---- 0.2-- 7---------
1966-04-16 -0.6 1.4 -1.5- 86.3- 7.3 3.0---- 0.5-- 4---------
260.4 ms

 

Źródłem pochodzenia danych jest Instytut Meteorologii i Gospodarki Wodnej – Państwowy Instytut Badawczy. Dane Instytutu Meteorologii i Gospodarki Wodnej – Państwowego Instytutu Badawczego zostały przetworzone.

Dane źródłowe można odnaleźć na stronie https://dane.imgw.pl